sensor_id;sensor_type;location;lat;lon;timestamp;temperature;humidity
55365;DHT22;41245;45.384;20.390;2023-10-13T00:02:07;410.30;640.00
55365;DHT22;41245;45.384;20.390;2023-10-13T00:04:33;410.30;640.00
55365;DHT22;41245;45.384;20.390;2023-10-13T00:07:03;410.30;665.60
55365;DHT22;41245;45.384;20.390;2023-10-13T00:09:30;410.10;614.40
55365;DHT22;41245;45.384;20.390;2023-10-13T00:12:01;410.10;691.20
55365;DHT22;41245;45.384;20.390;2023-10-13T00:14:28;410.10;742.40
55365;DHT22;41245;45.384;20.390;2023-10-13T00:17:01;410.10;742.40
55365;DHT22;41245;45.384;20.390;2023-10-13T00:19:39;410.10;665.60
55365;DHT22;41245;45.384;20.390;2023-10-13T00:22:15;410.00;537.60
55365;DHT22;41245;45.384;20.390;2023-10-13T00:24:48;410.10;537.60
55365;DHT22;41245;45.384;20.390;2023-10-13T00:27:20;410.10;588.80
55365;DHT22;41245;45.384;20.390;2023-10-13T00:29:59;410.10;512.00
55365;DHT22;41245;45.384;20.390;2023-10-13T00:32:46;410.10;691.20
55365;DHT22;41245;45.384;20.390;2023-10-13T00:35:17;410.10;588.80
55365;DHT22;41245;45.384;20.390;2023-10-13T00:37:52;410.20;563.20
55365;DHT22;41245;45.384;20.390;2023-10-13T00:40:21;410.30;640.00
55365;DHT22;41245;45.384;20.390;2023-10-13T00:43:11;410.30;588.80
55365;DHT22;41245;45.384;20.390;2023-10-13T00:45:47;410.30;563.20
55365;DHT22;41245;45.384;20.390;2023-10-13T00:48:28;410.10;665.60
55365;DHT22;41245;45.384;20.390;2023-10-13T00:50:59;410.00;384.00
55365;DHT22;41245;45.384;20.390;2023-10-13T00:53:29;410.10;588.80
55365;DHT22;41245;45.384;20.390;2023-10-13T00:55:55;410.10;409.60
55365;DHT22;41245;45.384;20.390;2023-10-13T00:58:22;410.20;435.20
55365;DHT22;41245;45.384;20.390;2023-10-13T01:00:50;410.30;512.00
55365;DHT22;41245;45.384;20.390;2023-10-13T01:03:23;410.30;460.80
55365;DHT22;41245;45.384;20.390;2023-10-13T01:05:56;410.30;512.00
55365;DHT22;41245;45.384;20.390;2023-10-13T01:08:33;410.20;435.20
55365;DHT22;41245;45.384;20.390;2023-10-13T01:11:04;410.20;460.80
55365;DHT22;41245;45.384;20.390;2023-10-13T01:13:33;410.10;435.20
55365;DHT22;41245;45.384;20.390;2023-10-13T01:16:03;410.10;332.80
55365;DHT22;41245;45.384;20.390;2023-10-13T01:18:29;410.00;384.00
55365;DHT22;41245;45.384;20.390;2023-10-13T01:20:55;410.00;409.60
55365;DHT22;41245;45.384;20.390;2023-10-13T01:23:26;410.00;665.60
55365;DHT22;41245;45.384;20.390;2023-10-13T01:25:54;410.00;512.00
55365;DHT22;41245;45.384;20.390;2023-10-13T01:28:22;410.00;614.40
55365;DHT22;41245;45.384;20.390;2023-10-13T01:30:49;410.00;614.40
55365;DHT22;41245;45.384;20.390;2023-10-13T01:33:18;410.00;307.20
55365;DHT22;41245;45.384;20.390;2023-10-13T01:35:53;410.00;588.80
55365;DHT22;41245;45.384;20.390;2023-10-13T01:38:20;410.00;537.60
55365;DHT22;41245;45.384;20.390;2023-10-13T01:40:46;409.90;384.00
55365;DHT22;41245;45.384;20.390;2023-10-13T01:43:17;409.90;307.20
55365;DHT22;41245;45.384;20.390;2023-10-13T01:45:43;409.80;153.60
55365;DHT22;41245;45.384;20.390;2023-10-13T01:48:15;409.70;204.80
55365;DHT22;41245;45.384;20.390;2023-10-13T01:50:47;409.70;128.00
55365;DHT22;41245;45.384;20.390;2023-10-13T01:53:25;409.60;128.00
55365;DHT22;41245;45.384;20.390;2023-10-13T01:55:54;409.60;128.00
55365;DHT22;41245;45.384;20.390;2023-10-13T01:58:22;384.90;128.00
55365;DHT22;41245;45.384;20.390;2023-10-13T02:00:49;409.60;128.00
55365;DHT22;41245;45.384;20.390;2023-10-13T02:03:15;409.60;128.00
55365;DHT22;41245;45.384;20.390;2023-10-13T02:05:45;409.60;128.00
55365;DHT22;41245;45.384;20.390;2023-10-13T02:08:15;409.60;128.00
55365;DHT22;41245;45.384;20.390;2023-10-13T02:10:45;409.60;128.00
55365;DHT22;41245;45.384;20.390;2023-10-13T02:13:15;409.60;128.00
55365;DHT22;41245;45.384;20.390;2023-10-13T02:15:45;409.60;128.00
55365;DHT22;41245;45.384;20.390;2023-10-13T02:18:15;384.90;128.00
55365;DHT22;41245;45.384;20.390;2023-10-13T02:20:55;384.80;128.00
55365;DHT22;41245;45.384;20.390;2023-10-13T02:23:23;384.80;128.00
55365;DHT22;41245;45.384;20.390;2023-10-13T02:25:50;384.80;128.00
55365;DHT22;41245;45.384;20.390;2023-10-13T02:28:20;384.90;128.00
55365;DHT22;41245;45.384;20.390;2023-10-13T02:30:53;384.90;128.00
55365;DHT22;41245;45.384;20.390;2023-10-13T02:33:19;384.90;128.00
55365;DHT22;41245;45.384;20.390;2023-10-13T02:35:50;384.90;128.00
55365;DHT22;41245;45.384;20.390;2023-10-13T02:38:19;384.80;128.00
55365;DHT22;41245;45.384;20.390;2023-10-13T02:41:04;384.80;128.00
55365;DHT22;41245;45.384;20.390;2023-10-13T02:43:35;384.70;128.00
55365;DHT22;41245;45.384;20.390;2023-10-13T02:46:02;384.80;128.00
55365;DHT22;41245;45.384;20.390;2023-10-13T02:48:29;384.80;128.00
55365;DHT22;41245;45.384;20.390;2023-10-13T02:51:08;384.80;128.00
55365;DHT22;41245;45.384;20.390;2023-10-13T02:53:47;384.80;128.00
55365;DHT22;41245;45.384;20.390;2023-10-13T02:56:16;384.80;128.00
55365;DHT22;41245;45.384;20.390;2023-10-13T02:58:49;384.80;128.00
55365;DHT22;41245;45.384;20.390;2023-10-13T03:01:35;384.80;128.00
55365;DHT22;41245;45.384;20.390;2023-10-13T03:04:03;384.80;128.00
55365;DHT22;41245;45.384;20.390;2023-10-13T03:06:29;384.80;128.00
55365;DHT22;41245;45.384;20.390;2023-10-13T03:09:08;384.50;128.00
55365;DHT22;41245;45.384;20.390;2023-10-13T03:11:44;384.60;128.00
55365;DHT22;41245;45.384;20.390;2023-10-13T03:14:18;384.50;128.00
55365;DHT22;41245;45.384;20.390;2023-10-13T03:16:55;384.40;128.00
55365;DHT22;41245;45.384;20.390;2023-10-13T03:19:28;384.50;128.00
55365;DHT22;41245;45.384;20.390;2023-10-13T03:22:04;384.40;128.00
55365;DHT22;41245;45.384;20.390;2023-10-13T03:24:42;384.30;128.00
55365;DHT22;41245;45.384;20.390;2023-10-13T03:27:21;384.40;128.00
55365;DHT22;41245;45.384;20.390;2023-10-13T03:29:50;384.40;128.00
55365;DHT22;41245;45.384;20.390;2023-10-13T03:32:26;384.40;128.00
55365;DHT22;41245;45.384;20.390;2023-10-13T03:34:51;384.30;128.00
55365;DHT22;41245;45.384;20.390;2023-10-13T03:37:18;384.30;128.00
55365;DHT22;41245;45.384;20.390;2023-10-13T03:40:11;384.20;128.00
55365;DHT22;41245;45.384;20.390;2023-10-13T03:42:47;384.20;128.00
55365;DHT22;41245;45.384;20.390;2023-10-13T03:45:36;384.20;128.00
55365;DHT22;41245;45.384;20.390;2023-10-13T03:48:26;384.30;128.00
55365;DHT22;41245;45.384;20.390;2023-10-13T03:51:01;384.30;128.00
55365;DHT22;41245;45.384;20.390;2023-10-13T03:53:37;384.30;128.00
55365;DHT22;41245;45.384;20.390;2023-10-13T03:56:20;384.20;128.00
55365;DHT22;41245;45.384;20.390;2023-10-13T03:58:52;384.40;128.00
55365;DHT22;41245;45.384;20.390;2023-10-13T04:01:22;384.30;128.00
55365;DHT22;41245;45.384;20.390;2023-10-13T04:04:01;384.30;128.00
55365;DHT22;41245;45.384;20.390;2023-10-13T04:06:34;384.40;128.00
55365;DHT22;41245;45.384;20.390;2023-10-13T04:09:21;384.20;128.00
55365;DHT22;41245;45.384;20.390;2023-10-13T04:11:56;384.10;128.00
55365;DHT22;41245;45.384;20.390;2023-10-13T04:14:41;384.00;128.00
55365;DHT22;41245;45.384;20.390;2023-10-13T04:17:25;359.30;128.00
55365;DHT22;41245;45.384;20.390;2023-10-13T04:19:56;384.10;128.00
55365;DHT22;41245;45.384;20.390;2023-10-13T04:22:42;384.10;128.00
55365;DHT22;41245;45.384;20.390;2023-10-13T04:25:26;384.20;128.00
55365;DHT22;41245;45.384;20.390;2023-10-13T04:28:04;384.20;128.00
55365;DHT22;41245;45.384;20.390;2023-10-13T04:30:40;384.20;128.00
55365;DHT22;41245;45.384;20.390;2023-10-13T04:33:33;384.20;128.00
55365;DHT22;41245;45.384;20.390;2023-10-13T04:36:21;384.20;128.00
55365;DHT22;41245;45.384;20.390;2023-10-13T04:38:54;384.20;128.00
55365;DHT22;41245;45.384;20.390;2023-10-13T04:41:28;384.00;128.00
55365;DHT22;41245;45.384;20.390;2023-10-13T04:44:02;384.00;128.00
55365;DHT22;41245;45.384;20.390;2023-10-13T04:46:31;359.30;128.00
55365;DHT22;41245;45.384;20.390;2023-10-13T04:49:22;359.30;128.00
55365;DHT22;41245;45.384;20.390;2023-10-13T04:51:59;359.20;128.00
55365;DHT22;41245;45.384;20.390;2023-10-13T04:54:30;359.20;128.00
55365;DHT22;41245;45.384;20.390;2023-10-13T04:57:22;359.20;128.00
55365;DHT22;41245;45.384;20.390;2023-10-13T04:59:52;359.20;128.00
55365;DHT22;41245;45.384;20.390;2023-10-13T05:02:37;359.30;128.00
55365;DHT22;41245;45.384;20.390;2023-10-13T05:05:09;359.20;128.00
55365;DHT22;41245;45.384;20.390;2023-10-13T05:07:46;359.20;128.00
55365;DHT22;41245;45.384;20.390;2023-10-13T05:10:32;359.30;128.00
55365;DHT22;41245;45.384;20.390;2023-10-13T05:13:17;384.00;128.00
55365;DHT22;41245;45.384;20.390;2023-10-13T05:16:01;384.10;128.00
55365;DHT22;41245;45.384;20.390;2023-10-13T05:18:45;384.20;128.00
55365;DHT22;41245;45.384;20.390;2023-10-13T05:21:30;384.30;128.00
55365;DHT22;41245;45.384;20.390;2023-10-13T05:24:14;384.40;128.00
55365;DHT22;41245;45.384;20.390;2023-10-13T05:26:58;384.50;128.00
55365;DHT22;41245;45.384;20.390;2023-10-13T05:29:46;384.50;128.00
55365;DHT22;41245;45.384;20.390;2023-10-13T05:32:31;384.70;128.00
55365;DHT22;41245;45.384;20.390;2023-10-13T05:35:16;384.80;128.00
55365;DHT22;41245;45.384;20.390;2023-10-13T05:38:01;409.60;128.00
55365;DHT22;41245;45.384;20.390;2023-10-13T05:40:56;409.70;128.00
55365;DHT22;41245;45.384;20.390;2023-10-13T05:43:41;409.90;128.00
55365;DHT22;41245;45.384;20.390;2023-10-13T05:46:26;410.00;128.00
55365;DHT22;41245;45.384;20.390;2023-10-13T05:48:52;410.10;128.00
55365;DHT22;41245;45.384;20.390;2023-10-13T05:51:38;410.30;128.00
55365;DHT22;41245;45.384;20.390;2023-10-13T05:54:23;410.40;128.00
55365;DHT22;41245;45.384;20.390;2023-10-13T05:57:07;410.50;128.00
55365;DHT22;41245;45.384;20.390;2023-10-13T05:59:51;435.40;128.00
55365;DHT22;41245;45.384;20.390;2023-10-13T06:02:36;435.50;128.00
55365;DHT22;41245;45.384;20.390;2023-10-13T06:05:20;435.60;128.00
55365;DHT22;41245;45.384;20.390;2023-10-13T06:08:04;435.60;128.00
55365;DHT22;41245;45.384;20.390;2023-10-13T06:10:48;435.80;128.00
55365;DHT22;41245;45.384;20.390;2023-10-13T06:13:32;435.90;128.00
55365;DHT22;41245;45.384;20.390;2023-10-13T06:16:17;435.90;128.00
55365;DHT22;41245;45.384;20.390;2023-10-13T06:19:02;436.00;128.00
55365;DHT22;41245;45.384;20.390;2023-10-13T06:21:46;436.10;128.00
55365;DHT22;41245;45.384;20.390;2023-10-13T06:24:31;460.90;128.00
55365;DHT22;41245;45.384;20.390;2023-10-13T06:27:15;460.90;153.60
55365;DHT22;41245;45.384;20.390;2023-10-13T06:30:03;461.00;179.20
55365;DHT22;41245;45.384;20.390;2023-10-13T06:32:32;461.10;153.60
55365;DHT22;41245;45.384;20.390;2023-10-13T06:34:59;461.20;179.20
55365;DHT22;41245;45.384;20.390;2023-10-13T06:37:30;461.20;204.80
55365;DHT22;41245;45.384;20.390;2023-10-13T06:40:00;461.10;153.60
55365;DHT22;41245;45.384;20.390;2023-10-13T06:42:32;461.30;153.60
55365;DHT22;41245;45.384;20.390;2023-10-13T06:45:00;461.40;153.60
55365;DHT22;41245;45.384;20.390;2023-10-13T06:47:28;461.60;256.00
55365;DHT22;41245;45.384;20.390;2023-10-13T06:49:54;486.40;486.40
55365;DHT22;41245;45.384;20.390;2023-10-13T06:52:22;486.40;691.20
55365;DHT22;41245;45.384;20.390;2023-10-13T06:54:52;486.60;665.60
55365;DHT22;41245;45.384;20.390;2023-10-13T06:57:19;486.60;742.40
55365;DHT22;41245;45.384;20.390;2023-10-13T06:59:48;486.80;896.00
55365;DHT22;41245;45.384;20.390;2023-10-13T07:02:14;486.80;819.20
55365;DHT22;41245;45.384;20.390;2023-10-13T07:04:50;486.80;844.80
55365;DHT22;41245;45.384;20.390;2023-10-13T07:07:38;487.00;870.40
55365;DHT22;41245;45.384;20.390;2023-10-13T07:10:10;487.10;870.40
55365;DHT22;41245;45.384;20.390;2023-10-13T07:12:39;487.20;921.60
55365;DHT22;41245;45.384;20.390;2023-10-13T07:15:15;487.30;819.20
55365;DHT22;41245;45.384;20.390;2023-10-13T07:17:43;512.00;947.20
55365;DHT22;41245;45.384;20.390;2023-10-13T07:20:10;512.30;972.80
55365;DHT22;41245;45.384;20.390;2023-10-13T07:23:02;512.80;1024.00
55365;DHT22;41245;45.384;20.390;2023-10-13T07:25:37;512.70;844.80
55365;DHT22;41245;45.384;20.390;2023-10-13T07:30:34;537.90;1126.40
55365;DHT22;41245;45.384;20.390;2023-10-13T07:33:35;537.90;1126.40
55365;DHT22;41245;45.384;20.390;2023-10-13T07:36:02;538.00;1177.60
55365;DHT22;41245;45.384;20.390;2023-10-13T07:38:37;538.10;1177.60
55365;DHT22;41245;45.384;20.390;2023-10-13T07:41:03;538.10;1254.40
55365;DHT22;41245;45.384;20.390;2023-10-13T07:43:35;538.20;1254.40
55365;DHT22;41245;45.384;20.390;2023-10-13T07:46:03;538.30;1305.60
55365;DHT22;41245;45.384;20.390;2023-10-13T07:48:36;538.10;1203.20
55365;DHT22;41245;45.384;20.390;2023-10-13T07:51:05;538.20;1075.20
55365;DHT22;41245;45.384;20.390;2023-10-13T07:53:34;538.40;1356.80
55365;DHT22;41245;45.384;20.390;2023-10-13T07:56:01;563.20;1331.20
55365;DHT22;41245;45.384;20.390;2023-10-13T07:58:30;538.50;1254.40
55365;DHT22;41245;45.384;20.390;2023-10-13T08:00:59;563.20;1075.20
55365;DHT22;41245;45.384;20.390;2023-10-13T08:03:42;563.40;1024.00
55365;DHT22;41245;45.384;20.390;2023-10-13T08:06:19;563.40;1100.80
55365;DHT22;41245;45.384;20.390;2023-10-13T08:08:45;563.50;1305.60
55365;DHT22;41245;45.384;20.390;2023-10-13T08:11:16;563.60;1408.00
55365;DHT22;41245;45.384;20.390;2023-10-13T08:13:58;563.80;1356.80
55365;DHT22;41245;45.384;20.390;2023-10-13T08:16:37;563.80;1203.20
55365;DHT22;41245;45.384;20.390;2023-10-13T08:19:20;563.70;1152.00
55365;DHT22;41245;45.384;20.390;2023-10-13T08:21:47;563.80;1433.60
55365;DHT22;41245;45.384;20.390;2023-10-13T08:24:26;563.90;1510.40
55365;DHT22;41245;45.384;20.390;2023-10-13T08:27:16;564.10;1382.40
55365;DHT22;41245;45.384;20.390;2023-10-13T08:32:28;589.20;1356.80
55365;DHT22;41245;45.384;20.390;2023-10-13T08:35:00;589.10;1305.60
55365;DHT22;41245;45.384;20.390;2023-10-13T08:37:35;589.10;1561.60
55365;DHT22;41245;45.384;20.390;2023-10-13T08:40:16;589.10;1356.80
55365;DHT22;41245;45.384;20.390;2023-10-13T08:42:46;589.20;1408.00
55365;DHT22;41245;45.384;20.390;2023-10-13T08:45:17;589.30;1408.00
55365;DHT22;41245;45.384;20.390;2023-10-13T08:47:52;589.20;1382.40
55365;DHT22;41245;45.384;20.390;2023-10-13T08:50:35;589.30;1587.20
55365;DHT22;41245;45.384;20.390;2023-10-13T08:53:30;589.30;1561.60
55365;DHT22;41245;45.384;20.390;2023-10-13T08:58:29;589.30;1433.60
55365;DHT22;41245;45.384;20.390;2023-10-13T09:01:15;589.50;1715.20
55365;DHT22;41245;45.384;20.390;2023-10-13T09:03:58;589.30;1484.80
55365;DHT22;41245;45.384;20.390;2023-10-13T09:06:55;589.20;1459.20
55365;DHT22;41245;45.384;20.390;2023-10-13T09:09:46;589.20;1382.40
55365;DHT22;41245;45.384;20.390;2023-10-13T09:12:22;589.30;1382.40
55365;DHT22;41245;45.384;20.390;2023-10-13T09:15:06;589.30;1356.80
55365;DHT22;41245;45.384;20.390;2023-10-13T09:17:46;589.30;1459.20
55365;DHT22;41245;45.384;20.390;2023-10-13T09:20:31;589.50;1433.60
55365;DHT22;41245;45.384;20.390;2023-10-13T09:23:10;589.60;1536.00
55365;DHT22;41245;45.384;20.390;2023-10-13T09:25:40;589.70;1510.40
55365;DHT22;41245;45.384;20.390;2023-10-13T09:28:19;614.40;1740.80
55365;DHT22;41245;45.384;20.390;2023-10-13T09:30:53;589.70;1510.40
55365;DHT22;41245;45.384;20.390;2023-10-13T09:33:29;614.50;1612.80
55365;DHT22;41245;45.384;20.390;2023-10-13T09:36:21;614.70;1484.80
55365;DHT22;41245;45.384;20.390;2023-10-13T09:38:47;614.70;1817.60
55365;DHT22;41245;45.384;20.390;2023-10-13T09:41:35;614.70;1740.80
55365;DHT22;41245;45.384;20.390;2023-10-13T09:44:03;614.70;1664.00
55365;DHT22;41245;45.384;20.390;2023-10-13T09:46:30;614.70;1843.20
55365;DHT22;41245;45.384;20.390;2023-10-13T09:49:07;614.80;1587.20
55365;DHT22;41245;45.384;20.390;2023-10-13T09:51:40;615.00;1817.60
55365;DHT22;41245;45.384;20.390;2023-10-13T09:54:33;615.10;1868.80
55365;DHT22;41245;45.384;20.390;2023-10-13T09:57:15;615.20;1664.00
55365;DHT22;41245;45.384;20.390;2023-10-13T09:59:49;640.00;1689.60
55365;DHT22;41245;45.384;20.390;2023-10-13T10:02:18;640.10;1971.20
55365;DHT22;41245;45.384;20.390;2023-10-13T10:04:54;640.10;2048.00
55365;DHT22;41245;45.384;20.390;2023-10-13T10:07:36;640.20;2022.40
55365;DHT22;41245;45.384;20.390;2023-10-13T10:10:05;640.30;2073.60
55365;DHT22;41245;45.384;20.390;2023-10-13T10:12:49;640.40;1920.00
55365;DHT22;41245;45.384;20.390;2023-10-13T10:15:32;640.40;2073.60
55365;DHT22;41245;45.384;20.390;2023-10-13T10:18:00;640.40;1868.80
55365;DHT22;41245;45.384;20.390;2023-10-13T10:23:25;640.70;2124.80
55365;DHT22;41245;45.384;20.390;2023-10-13T10:25:53;640.80;2176.00
55365;DHT22;41245;45.384;20.390;2023-10-13T10:28:36;640.90;1971.20
55365;DHT22;41245;45.384;20.390;2023-10-13T10:31:06;640.80;2176.00
55365;DHT22;41245;45.384;20.390;2023-10-13T10:33:42;640.90;2201.60
55365;DHT22;41245;45.384;20.390;2023-10-13T10:36:09;665.60;2150.40
55365;DHT22;41245;45.384;20.390;2023-10-13T10:38:54;665.60;2201.60
55365;DHT22;41245;45.384;20.390;2023-10-13T10:41:29;665.70;2201.60
55365;DHT22;41245;45.384;20.390;2023-10-13T10:44:15;665.60;2227.20
55365;DHT22;41245;45.384;20.390;2023-10-13T10:46:42;665.70;2278.40
55365;DHT22;41245;45.384;20.390;2023-10-13T10:49:18;665.70;1971.20
55365;DHT22;41245;45.384;20.390;2023-10-13T10:51:59;665.70;2073.60
55365;DHT22;41245;45.384;20.390;2023-10-13T10:54:27;665.80;1996.80
55365;DHT22;41245;45.384;20.390;2023-10-13T10:56:59;665.90;2048.00
55365;DHT22;41245;45.384;20.390;2023-10-13T10:59:40;665.90;2304.00
55365;DHT22;41245;45.384;20.390;2023-10-13T11:02:07;666.00;2073.60
55365;DHT22;41245;45.384;20.390;2023-10-13T11:04:34;666.00;2048.00
55365;DHT22;41245;45.384;20.390;2023-10-13T11:07:06;666.00;2048.00
55365;DHT22;41245;45.384;20.390;2023-10-13T11:09:33;666.10;2048.00
55365;DHT22;41245;45.384;20.390;2023-10-13T11:12:14;666.10;2304.00
55365;DHT22;41245;45.384;20.390;2023-10-13T11:14:41;666.10;2099.20
55365;DHT22;41245;45.384;20.390;2023-10-13T11:17:07;666.20;2176.00
55365;DHT22;41245;45.384;20.390;2023-10-13T11:19:46;666.20;2099.20
55365;DHT22;41245;45.384;20.390;2023-10-13T11:22:13;666.20;2304.00
55365;DHT22;41245;45.384;20.390;2023-10-13T11:24:58;666.20;2099.20
55365;DHT22;41245;45.384;20.390;2023-10-13T11:27:32;666.30;2201.60
55365;DHT22;41245;45.384;20.390;2023-10-13T11:30:17;666.30;2355.20
55365;DHT22;41245;45.384;20.390;2023-10-13T11:33:05;666.40;2278.40
55365;DHT22;41245;45.384;20.390;2023-10-13T11:35:32;666.30;2227.20
55365;DHT22;41245;45.384;20.390;2023-10-13T11:38:17;691.20;2201.60
55365;DHT22;41245;45.384;20.390;2023-10-13T11:43:35;691.20;2304.00
55365;DHT22;41245;45.384;20.390;2023-10-13T11:46:14;691.30;2278.40
55365;DHT22;41245;45.384;20.390;2023-10-13T11:48:44;691.30;2252.80
55365;DHT22;41245;45.384;20.390;2023-10-13T11:51:15;691.30;2304.00
55365;DHT22;41245;45.384;20.390;2023-10-13T11:53:50;691.30;2432.00
55365;DHT22;41245;45.384;20.390;2023-10-13T11:56:19;691.30;2252.80
55365;DHT22;41245;45.384;20.390;2023-10-13T11:58:48;691.40;2329.60
55365;DHT22;41245;45.384;20.390;2023-10-13T12:01:14;691.50;2278.40
55365;DHT22;41245;45.384;20.390;2023-10-13T12:03:45;691.50;2227.20
55365;DHT22;41245;45.384;20.390;2023-10-13T12:06:30;691.40;2278.40
55365;DHT22;41245;45.384;20.390;2023-10-13T12:09:10;691.50;2252.80
55365;DHT22;41245;45.384;20.390;2023-10-13T12:11:42;691.40;2201.60
55365;DHT22;41245;45.384;20.390;2023-10-13T12:14:13;691.20;2227.20
55365;DHT22;41245;45.384;20.390;2023-10-13T12:16:43;691.40;2329.60
55365;DHT22;41245;45.384;20.390;2023-10-13T12:19:15;691.40;2304.00
55365;DHT22;41245;45.384;20.390;2023-10-13T12:21:43;691.50;2304.00
55365;DHT22;41245;45.384;20.390;2023-10-13T12:24:09;691.40;2278.40
55365;DHT22;41245;45.384;20.390;2023-10-13T12:26:48;691.30;2278.40
55365;DHT22;41245;45.384;20.390;2023-10-13T12:29:14;691.40;2227.20
55365;DHT22;41245;45.384;20.390;2023-10-13T12:31:48;691.40;2355.20
55365;DHT22;41245;45.384;20.390;2023-10-13T12:34:31;691.40;2355.20
55365;DHT22;41245;45.384;20.390;2023-10-13T12:37:12;691.40;2252.80
55365;DHT22;41245;45.384;20.390;2023-10-13T12:39:57;691.50;2329.60
55365;DHT22;41245;45.384;20.390;2023-10-13T12:42:42;691.50;2355.20
55365;DHT22;41245;45.384;20.390;2023-10-13T12:45:26;691.30;2380.80
55365;DHT22;41245;45.384;20.390;2023-10-13T12:48:10;691.30;2278.40
55365;DHT22;41245;45.384;20.390;2023-10-13T12:50:54;691.40;2329.60
55365;DHT22;41245;45.384;20.390;2023-10-13T12:53:33;691.40;2252.80
55365;DHT22;41245;45.384;20.390;2023-10-13T12:55:59;691.50;2432.00
55365;DHT22;41245;45.384;20.390;2023-10-13T12:58:25;691.50;2329.60
55365;DHT22;41245;45.384;20.390;2023-10-13T13:00:52;691.50;2329.60
55365;DHT22;41245;45.384;20.390;2023-10-13T13:03:30;691.50;2278.40
55365;DHT22;41245;45.384;20.390;2023-10-13T13:05:56;691.60;2432.00
55365;DHT22;41245;45.384;20.390;2023-10-13T13:08:22;691.60;2380.80
55365;DHT22;41245;45.384;20.390;2023-10-13T13:10:48;691.50;2432.00
55365;DHT22;41245;45.384;20.390;2023-10-13T13:13:14;691.50;2304.00
55365;DHT22;41245;45.384;20.390;2023-10-13T13:15:42;691.50;2380.80
55365;DHT22;41245;45.384;20.390;2023-10-13T13:18:08;691.40;2355.20
55365;DHT22;41245;45.384;20.390;2023-10-13T13:20:40;691.30;2380.80
55365;DHT22;41245;45.384;20.390;2023-10-13T13:23:09;691.30;2278.40
55365;DHT22;41245;45.384;20.390;2023-10-13T13:25:38;691.30;2252.80
55365;DHT22;41245;45.384;20.390;2023-10-13T13:28:08;691.30;2278.40
55365;DHT22;41245;45.384;20.390;2023-10-13T13:30:35;691.30;2432.00
55365;DHT22;41245;45.384;20.390;2023-10-13T13:33:03;691.30;2432.00
55365;DHT22;41245;45.384;20.390;2023-10-13T13:35:37;691.30;2380.80
55365;DHT22;41245;45.384;20.390;2023-10-13T13:38:03;691.30;2252.80
55365;DHT22;41245;45.384;20.390;2023-10-13T13:40:37;691.30;2304.00
55365;DHT22;41245;45.384;20.390;2023-10-13T13:43:03;691.30;2304.00
55365;DHT22;41245;45.384;20.390;2023-10-13T13:45:29;691.30;2329.60
55365;DHT22;41245;45.384;20.390;2023-10-13T13:47:57;691.30;2278.40
55365;DHT22;41245;45.384;20.390;2023-10-13T13:50:24;691.30;2278.40
55365;DHT22;41245;45.384;20.390;2023-10-13T13:52:56;691.30;2201.60
55365;DHT22;41245;45.384;20.390;2023-10-13T13:55:23;691.30;2355.20
55365;DHT22;41245;45.384;20.390;2023-10-13T13:57:49;691.30;2278.40
55365;DHT22;41245;45.384;20.390;2023-10-13T14:00:19;691.20;2201.60
55365;DHT22;41245;45.384;20.390;2023-10-13T14:03:07;666.50;2252.80
55365;DHT22;41245;45.384;20.390;2023-10-13T14:05:59;666.40;2252.80
55365;DHT22;41245;45.384;20.390;2023-10-13T14:08:26;666.40;2380.80
55365;DHT22;41245;45.384;20.390;2023-10-13T14:10:55;666.40;2252.80
55365;DHT22;41245;45.384;20.390;2023-10-13T14:13:47;666.40;2278.40
55365;DHT22;41245;45.384;20.390;2023-10-13T14:16:18;666.10;2278.40
55365;DHT22;41245;45.384;20.390;2023-10-13T14:18:48;666.30;2278.40
55365;DHT22;41245;45.384;20.390;2023-10-13T14:21:14;666.30;2304.00
55365;DHT22;41245;45.384;20.390;2023-10-13T14:23:48;666.20;2227.20
55365;DHT22;41245;45.384;20.390;2023-10-13T14:26:17;666.20;2252.80
55365;DHT22;41245;45.384;20.390;2023-10-13T14:28:47;666.10;2278.40
55365;DHT22;41245;45.384;20.390;2023-10-13T14:31:32;666.10;2227.20
55365;DHT22;41245;45.384;20.390;2023-10-13T14:33:59;666.10;2150.40
55365;DHT22;41245;45.384;20.390;2023-10-13T14:36:25;666.00;2252.80
55365;DHT22;41245;45.384;20.390;2023-10-13T14:38:57;666.00;2278.40
55365;DHT22;41245;45.384;20.390;2023-10-13T14:41:23;665.90;2278.40
55365;DHT22;41245;45.384;20.390;2023-10-13T14:43:48;665.90;2227.20
55365;DHT22;41245;45.384;20.390;2023-10-13T14:46:18;665.90;2227.20
55365;DHT22;41245;45.384;20.390;2023-10-13T14:48:51;665.80;2201.60
55365;DHT22;41245;45.384;20.390;2023-10-13T14:51:17;665.80;2201.60
55365;DHT22;41245;45.384;20.390;2023-10-13T14:53:47;665.70;2252.80
55365;DHT22;41245;45.384;20.390;2023-10-13T14:56:14;665.70;2278.40
55365;DHT22;41245;45.384;20.390;2023-10-13T14:58:41;665.70;2252.80
55365;DHT22;41245;45.384;20.390;2023-10-13T15:01:16;665.60;2099.20
55365;DHT22;41245;45.384;20.390;2023-10-13T15:03:50;640.90;2073.60
55365;DHT22;41245;45.384;20.390;2023-10-13T15:06:19;640.80;2099.20
55365;DHT22;41245;45.384;20.390;2023-10-13T15:08:52;640.80;2201.60
55365;DHT22;41245;45.384;20.390;2023-10-13T15:11:24;640.70;2099.20
55365;DHT22;41245;45.384;20.390;2023-10-13T15:14:02;640.60;1996.80
55365;DHT22;41245;45.384;20.390;2023-10-13T15:16:28;640.60;2073.60
55365;DHT22;41245;45.384;20.390;2023-10-13T15:18:54;640.50;2073.60
55365;DHT22;41245;45.384;20.390;2023-10-13T15:21:21;640.40;1996.80
55365;DHT22;41245;45.384;20.390;2023-10-13T15:23:51;640.40;2073.60
55365;DHT22;41245;45.384;20.390;2023-10-13T15:26:18;640.30;1971.20
55365;DHT22;41245;45.384;20.390;2023-10-13T15:28:49;640.20;2022.40
55365;DHT22;41245;45.384;20.390;2023-10-13T15:31:22;640.20;2048.00
55365;DHT22;41245;45.384;20.390;2023-10-13T15:34:01;640.20;2048.00
55365;DHT22;41245;45.384;20.390;2023-10-13T15:36:33;640.00;1894.40
55365;DHT22;41245;45.384;20.390;2023-10-13T15:38:59;615.20;1920.00